sensor_id;sensor_type;location;lat;lon;timestamp;temperature;humidity
19220;DHT22;9744;49.364;7.484;2022-09-27T00:00:58;8.40;99.90
19220;DHT22;9744;49.364;7.484;2022-09-27T00:03:26;8.40;99.90
19220;DHT22;9744;49.364;7.484;2022-09-27T00:06:01;8.40;99.90
19220;DHT22;9744;49.364;7.484;2022-09-27T00:08:31;8.40;99.90
19220;DHT22;9744;49.364;7.484;2022-09-27T00:10:59;8.30;99.90
19220;DHT22;9744;49.364;7.484;2022-09-27T00:13:29;8.40;99.90
19220;DHT22;9744;49.364;7.484;2022-09-27T00:15:57;8.30;99.90
19220;DHT22;9744;49.364;7.484;2022-09-27T00:18:25;8.30;99.90
19220;DHT22;9744;49.364;7.484;2022-09-27T00:20:53;8.30;99.90
19220;DHT22;9744;49.364;7.484;2022-09-27T00:23:20;8.40;99.90
19220;DHT22;9744;49.364;7.484;2022-09-27T00:25:57;8.30;99.90
19220;DHT22;9744;49.364;7.484;2022-09-27T00:28:25;8.30;99.90
19220;DHT22;9744;49.364;7.484;2022-09-27T00:30:53;8.40;99.90
19220;DHT22;9744;49.364;7.484;2022-09-27T00:33:21;8.40;99.90
19220;DHT22;9744;49.364;7.484;2022-09-27T00:35:48;8.40;99.90
19220;DHT22;9744;49.364;7.484;2022-09-27T00:38:16;8.40;99.90
19220;DHT22;9744;49.364;7.484;2022-09-27T00:40:44;8.40;99.90
19220;DHT22;9744;49.364;7.484;2022-09-27T00:43:16;8.40;99.90
19220;DHT22;9744;49.364;7.484;2022-09-27T00:45:47;8.40;99.90
19220;DHT22;9744;49.364;7.484;2022-09-27T00:48:20;8.40;99.90
19220;DHT22;9744;49.364;7.484;2022-09-27T00:50:50;8.40;99.90
19220;DHT22;9744;49.364;7.484;2022-09-27T00:53:23;8.40;99.90
19220;DHT22;9744;49.364;7.484;2022-09-27T00:55:53;8.40;99.90
19220;DHT22;9744;49.364;7.484;2022-09-27T00:58:25;8.40;99.90
19220;DHT22;9744;49.364;7.484;2022-09-27T01:00:58;8.40;99.90
19220;DHT22;9744;49.364;7.484;2022-09-27T01:03:33;8.40;99.90
19220;DHT22;9744;49.364;7.484;2022-09-27T01:06:02;8.40;99.90
19220;DHT22;9744;49.364;7.484;2022-09-27T01:08:32;8.40;99.90
19220;DHT22;9744;49.364;7.484;2022-09-27T01:11:12;8.40;99.90
19220;DHT22;9744;49.364;7.484;2022-09-27T01:13:49;8.40;99.90
19220;DHT22;9744;49.364;7.484;2022-09-27T01:16:26;8.40;99.90
19220;DHT22;9744;49.364;7.484;2022-09-27T01:19:06;8.40;99.90
19220;DHT22;9744;49.364;7.484;2022-09-27T01:21:50;8.40;99.90
19220;DHT22;9744;49.364;7.484;2022-09-27T01:27:57;8.40;99.90
19220;DHT22;9744;49.364;7.484;2022-09-27T01:30:32;8.40;99.90
19220;DHT22;9744;49.364;7.484;2022-09-27T01:33:17;8.40;99.90
19220;DHT22;9744;49.364;7.484;2022-09-27T01:36:03;8.40;99.90
19220;DHT22;9744;49.364;7.484;2022-09-27T01:38:40;8.50;99.90
19220;DHT22;9744;49.364;7.484;2022-09-27T01:41:18;8.50;99.90
19220;DHT22;9744;49.364;7.484;2022-09-27T01:44:25;8.50;99.90
19220;DHT22;9744;49.364;7.484;2022-09-27T01:47:06;8.40;99.90
19220;DHT22;9744;49.364;7.484;2022-09-27T01:49:53;8.50;99.90
19220;DHT22;9744;49.364;7.484;2022-09-27T01:52:25;8.40;99.90
19220;DHT22;9744;49.364;7.484;2022-09-27T01:54:59;8.40;99.90
19220;DHT22;9744;49.364;7.484;2022-09-27T01:57:51;8.40;99.90
19220;DHT22;9744;49.364;7.484;2022-09-27T02:00:23;8.40;99.90
19220;DHT22;9744;49.364;7.484;2022-09-27T02:02:59;8.30;99.90
19220;DHT22;9744;49.364;7.484;2022-09-27T02:05:38;8.30;99.90
19220;DHT22;9744;49.364;7.484;2022-09-27T02:08:32;8.30;99.90
19220;DHT22;9744;49.364;7.484;2022-09-27T02:11:09;8.40;99.90
19220;DHT22;9744;49.364;7.484;2022-09-27T02:13:46;8.40;99.90
19220;DHT22;9744;49.364;7.484;2022-09-27T02:16:47;8.40;99.90
19220;DHT22;9744;49.364;7.484;2022-09-27T02:19:27;8.50;99.90
19220;DHT22;9744;49.364;7.484;2022-09-27T02:22:03;8.40;99.90
19220;DHT22;9744;49.364;7.484;2022-09-27T02:24:35;8.30;99.90
19220;DHT22;9744;49.364;7.484;2022-09-27T02:27:08;8.50;99.90
19220;DHT22;9744;49.364;7.484;2022-09-27T02:29:42;8.40;99.90
19220;DHT22;9744;49.364;7.484;2022-09-27T02:32:11;8.50;99.90
19220;DHT22;9744;49.364;7.484;2022-09-27T02:34:40;8.50;99.90
19220;DHT22;9744;49.364;7.484;2022-09-27T02:37:09;8.40;99.90
19220;DHT22;9744;49.364;7.484;2022-09-27T02:39:37;8.40;99.90
19220;DHT22;9744;49.364;7.484;2022-09-27T02:42:07;8.30;99.90
19220;DHT22;9744;49.364;7.484;2022-09-27T02:44:36;8.40;99.90
19220;DHT22;9744;49.364;7.484;2022-09-27T02:47:14;8.40;99.90
19220;DHT22;9744;49.364;7.484;2022-09-27T02:49:54;8.40;99.90
19220;DHT22;9744;49.364;7.484;2022-09-27T02:52:48;8.50;99.90
19220;DHT22;9744;49.364;7.484;2022-09-27T02:55:26;8.50;99.90
19220;DHT22;9744;49.364;7.484;2022-09-27T02:58:18;8.50;99.90
19220;DHT22;9744;49.364;7.484;2022-09-27T03:01:28;8.50;99.90
19220;DHT22;9744;49.364;7.484;2022-09-27T03:04:16;8.30;99.90
19220;DHT22;9744;49.364;7.484;2022-09-27T03:06:49;8.20;99.90
19220;DHT22;9744;49.364;7.484;2022-09-27T03:09:19;8.10;99.90
19220;DHT22;9744;49.364;7.484;2022-09-27T03:11:47;8.10;99.90
19220;DHT22;9744;49.364;7.484;2022-09-27T03:14:14;8.20;99.90
19220;DHT22;9744;49.364;7.484;2022-09-27T03:16:53;8.10;99.90
19220;DHT22;9744;49.364;7.484;2022-09-27T03:19:49;8.00;99.90
19220;DHT22;9744;49.364;7.484;2022-09-27T03:22:24;8.00;99.90
19220;DHT22;9744;49.364;7.484;2022-09-27T03:24:52;8.00;99.90
19220;DHT22;9744;49.364;7.484;2022-09-27T03:27:19;8.00;99.90
19220;DHT22;9744;49.364;7.484;2022-09-27T03:29:46;8.00;99.90
19220;DHT22;9744;49.364;7.484;2022-09-27T03:32:15;8.00;99.90
19220;DHT22;9744;49.364;7.484;2022-09-27T03:35:09;8.10;99.90
19220;DHT22;9744;49.364;7.484;2022-09-27T03:37:39;8.10;99.90
19220;DHT22;9744;49.364;7.484;2022-09-27T03:40:09;7.90;99.90
19220;DHT22;9744;49.364;7.484;2022-09-27T03:42:37;8.00;99.90
19220;DHT22;9744;49.364;7.484;2022-09-27T03:45:06;8.00;99.90
19220;DHT22;9744;49.364;7.484;2022-09-27T03:47:33;8.10;99.90
19220;DHT22;9744;49.364;7.484;2022-09-27T03:50:01;8.10;99.90
19220;DHT22;9744;49.364;7.484;2022-09-27T03:52:28;8.20;99.90
19220;DHT22;9744;49.364;7.484;2022-09-27T03:54:57;8.00;99.90
19220;DHT22;9744;49.364;7.484;2022-09-27T03:57:24;8.10;99.90
19220;DHT22;9744;49.364;7.484;2022-09-27T03:59:52;8.10;99.90
19220;DHT22;9744;49.364;7.484;2022-09-27T04:02:37;8.00;99.90
19220;DHT22;9744;49.364;7.484;2022-09-27T04:05:23;7.90;99.90
19220;DHT22;9744;49.364;7.484;2022-09-27T04:07:55;7.90;99.90
19220;DHT22;9744;49.364;7.484;2022-09-27T04:10:24;7.80;99.90
19220;DHT22;9744;49.364;7.484;2022-09-27T04:12:52;7.70;99.90
19220;DHT22;9744;49.364;7.484;2022-09-27T04:15:22;7.70;99.90
19220;DHT22;9744;49.364;7.484;2022-09-27T04:17:49;7.80;99.90
19220;DHT22;9744;49.364;7.484;2022-09-27T04:20:33;7.70;99.90
19220;DHT22;9744;49.364;7.484;2022-09-27T04:23:05;7.70;99.90
19220;DHT22;9744;49.364;7.484;2022-09-27T04:25:36;7.70;99.90
19220;DHT22;9744;49.364;7.484;2022-09-27T04:28:13;7.70;99.90
19220;DHT22;9744;49.364;7.484;2022-09-27T04:30:41;7.60;99.90
19220;DHT22;9744;49.364;7.484;2022-09-27T04:33:08;7.60;99.90
19220;DHT22;9744;49.364;7.484;2022-09-27T04:35:38;7.60;99.90
19220;DHT22;9744;49.364;7.484;2022-09-27T04:38:23;7.70;99.90
19220;DHT22;9744;49.364;7.484;2022-09-27T04:40:52;7.70;99.90
19220;DHT22;9744;49.364;7.484;2022-09-27T04:43:20;7.70;99.90
19220;DHT22;9744;49.364;7.484;2022-09-27T04:45:48;7.60;99.90
19220;DHT22;9744;49.364;7.484;2022-09-27T04:48:16;7.70;99.90
19220;DHT22;9744;49.364;7.484;2022-09-27T04:50:44;7.70;99.90
19220;DHT22;9744;49.364;7.484;2022-09-27T04:53:12;7.80;99.90
19220;DHT22;9744;49.364;7.484;2022-09-27T04:55:43;7.70;99.90
19220;DHT22;9744;49.364;7.484;2022-09-27T04:58:12;7.60;99.90
19220;DHT22;9744;49.364;7.484;2022-09-27T05:00:40;7.60;99.90
19220;DHT22;9744;49.364;7.484;2022-09-27T05:03:28;7.70;99.90
19220;DHT22;9744;49.364;7.484;2022-09-27T05:05:59;7.70;99.90
19220;DHT22;9744;49.364;7.484;2022-09-27T05:08:27;7.70;99.90
19220;DHT22;9744;49.364;7.484;2022-09-27T05:11:14;7.60;99.90
19220;DHT22;9744;49.364;7.484;2022-09-27T05:13:59;7.60;99.90
19220;DHT22;9744;49.364;7.484;2022-09-27T05:16:27;7.50;99.90
19220;DHT22;9744;49.364;7.484;2022-09-27T05:19:18;7.60;99.90
19220;DHT22;9744;49.364;7.484;2022-09-27T05:22:12;7.60;99.90
19220;DHT22;9744;49.364;7.484;2022-09-27T05:24:40;7.60;99.90
19220;DHT22;9744;49.364;7.484;2022-09-27T05:27:09;7.50;99.90
19220;DHT22;9744;49.364;7.484;2022-09-27T05:29:41;7.50;99.90
19220;DHT22;9744;49.364;7.484;2022-09-27T05:32:16;7.50;99.90
19220;DHT22;9744;49.364;7.484;2022-09-27T05:34:48;7.50;99.90
19220;DHT22;9744;49.364;7.484;2022-09-27T05:37:18;7.50;99.90
19220;DHT22;9744;49.364;7.484;2022-09-27T05:39:46;7.50;99.90
19220;DHT22;9744;49.364;7.484;2022-09-27T05:42:16;7.40;99.90
19220;DHT22;9744;49.364;7.484;2022-09-27T05:44:45;7.40;99.90
19220;DHT22;9744;49.364;7.484;2022-09-27T05:47:14;7.40;99.90
19220;DHT22;9744;49.364;7.484;2022-09-27T05:49:41;7.30;99.90
19220;DHT22;9744;49.364;7.484;2022-09-27T05:52:11;7.30;99.90
19220;DHT22;9744;49.364;7.484;2022-09-27T05:54:38;7.40;99.90
19220;DHT22;9744;49.364;7.484;2022-09-27T05:57:06;7.40;99.90
19220;DHT22;9744;49.364;7.484;2022-09-27T05:59:47;7.50;99.90
19220;DHT22;9744;49.364;7.484;2022-09-27T06:02:20;7.40;99.90
19220;DHT22;9744;49.364;7.484;2022-09-27T06:05:07;7.40;99.90
19220;DHT22;9744;49.364;7.484;2022-09-27T06:08:11;7.50;99.90
19220;DHT22;9744;49.364;7.484;2022-09-27T06:10:45;7.50;99.90
19220;DHT22;9744;49.364;7.484;2022-09-27T06:13:15;7.50;99.90
19220;DHT22;9744;49.364;7.484;2022-09-27T06:15:44;7.50;99.90
19220;DHT22;9744;49.364;7.484;2022-09-27T06:18:14;7.40;99.90
19220;DHT22;9744;49.364;7.484;2022-09-27T06:20:46;7.30;99.90
19220;DHT22;9744;49.364;7.484;2022-09-27T06:23:15;7.40;99.90
19220;DHT22;9744;49.364;7.484;2022-09-27T06:25:43;7.40;99.90
19220;DHT22;9744;49.364;7.484;2022-09-27T06:28:21;7.40;99.90
19220;DHT22;9744;49.364;7.484;2022-09-27T06:30:54;7.30;99.90
19220;DHT22;9744;49.364;7.484;2022-09-27T06:33:42;7.40;99.90
19220;DHT22;9744;49.364;7.484;2022-09-27T06:36:10;7.40;99.90
19220;DHT22;9744;49.364;7.484;2022-09-27T06:38:40;7.40;99.90
19220;DHT22;9744;49.364;7.484;2022-09-27T06:41:14;7.40;99.90
19220;DHT22;9744;49.364;7.484;2022-09-27T06:44:09;7.50;99.90
19220;DHT22;9744;49.364;7.484;2022-09-27T06:46:58;7.40;99.90
19220;DHT22;9744;49.364;7.484;2022-09-27T06:49:51;7.40;99.90
19220;DHT22;9744;49.364;7.484;2022-09-27T06:52:18;7.50;99.90
19220;DHT22;9744;49.364;7.484;2022-09-27T06:54:46;7.50;99.90
19220;DHT22;9744;49.364;7.484;2022-09-27T06:57:14;7.50;99.90
19220;DHT22;9744;49.364;7.484;2022-09-27T07:00:03;7.40;99.90
19220;DHT22;9744;49.364;7.484;2022-09-27T07:03:09;7.60;99.90
19220;DHT22;9744;49.364;7.484;2022-09-27T07:05:55;7.50;99.90
19220;DHT22;9744;49.364;7.484;2022-09-27T07:08:49;7.50;99.90
19220;DHT22;9744;49.364;7.484;2022-09-27T07:11:17;7.60;99.90
19220;DHT22;9744;49.364;7.484;2022-09-27T07:13:45;7.60;99.90
19220;DHT22;9744;49.364;7.484;2022-09-27T07:16:13;7.60;99.90
19220;DHT22;9744;49.364;7.484;2022-09-27T07:18:42;7.60;99.90
19220;DHT22;9744;49.364;7.484;2022-09-27T07:21:10;7.60;99.90
19220;DHT22;9744;49.364;7.484;2022-09-27T07:23:37;7.60;99.90
19220;DHT22;9744;49.364;7.484;2022-09-27T07:26:08;7.60;99.90
19220;DHT22;9744;49.364;7.484;2022-09-27T07:28:36;7.60;99.90
19220;DHT22;9744;49.364;7.484;2022-09-27T07:31:07;7.60;99.90
19220;DHT22;9744;49.364;7.484;2022-09-27T07:34:01;7.50;99.90
19220;DHT22;9744;49.364;7.484;2022-09-27T07:36:30;7.50;99.90
19220;DHT22;9744;49.364;7.484;2022-09-27T07:38:58;7.50;99.90
19220;DHT22;9744;49.364;7.484;2022-09-27T07:41:26;7.50;99.90
19220;DHT22;9744;49.364;7.484;2022-09-27T07:43:53;7.50;99.90
19220;DHT22;9744;49.364;7.484;2022-09-27T07:46:24;7.50;99.90
19220;DHT22;9744;49.364;7.484;2022-09-27T07:49:26;7.70;99.90
19220;DHT22;9744;49.364;7.484;2022-09-27T07:52:23;7.80;99.90
19220;DHT22;9744;49.364;7.484;2022-09-27T07:55:14;7.90;99.90
19220;DHT22;9744;49.364;7.484;2022-09-27T07:58:06;8.00;99.90
19220;DHT22;9744;49.364;7.484;2022-09-27T08:00:35;8.00;99.90
19220;DHT22;9744;49.364;7.484;2022-09-27T08:03:05;8.00;99.90
19220;DHT22;9744;49.364;7.484;2022-09-27T08:05:35;7.90;99.90
19220;DHT22;9744;49.364;7.484;2022-09-27T08:08:03;7.90;99.90
19220;DHT22;9744;49.364;7.484;2022-09-27T08:10:32;7.90;99.90
19220;DHT22;9744;49.364;7.484;2022-09-27T08:13:00;7.80;99.90
19220;DHT22;9744;49.364;7.484;2022-09-27T08:15:30;7.80;99.90
19220;DHT22;9744;49.364;7.484;2022-09-27T08:17:58;7.80;99.90
19220;DHT22;9744;49.364;7.484;2022-09-27T08:20:50;7.70;99.90
19220;DHT22;9744;49.364;7.484;2022-09-27T08:23:36;7.60;99.90
19220;DHT22;9744;49.364;7.484;2022-09-27T08:29:24;7.50;99.90
19220;DHT22;9744;49.364;7.484;2022-09-27T08:31:55;7.50;99.90
19220;DHT22;9744;49.364;7.484;2022-09-27T08:34:23;7.50;99.90
19220;DHT22;9744;49.364;7.484;2022-09-27T08:51:49;7.20;99.90
19220;DHT22;9744;49.364;7.484;2022-09-27T08:54:24;7.20;99.90
19220;DHT22;9744;49.364;7.484;2022-09-27T08:56:57;7.30;99.90
19220;DHT22;9744;49.364;7.484;2022-09-27T08:59:30;7.30;99.90
19220;DHT22;9744;49.364;7.484;2022-09-27T09:02:01;7.40;99.90
19220;DHT22;9744;49.364;7.484;2022-09-27T09:04:35;7.40;99.90
19220;DHT22;9744;49.364;7.484;2022-09-27T09:07:11;7.50;99.90
19220;DHT22;9744;49.364;7.484;2022-09-27T09:09:48;7.50;99.90
19220;DHT22;9744;49.364;7.484;2022-09-27T09:12:31;7.60;99.90
19220;DHT22;9744;49.364;7.484;2022-09-27T09:15:40;7.60;99.90
19220;DHT22;9744;49.364;7.484;2022-09-27T09:18:58;7.70;99.90
19220;DHT22;9744;49.364;7.484;2022-09-27T09:21:47;7.70;99.90
19220;DHT22;9744;49.364;7.484;2022-09-27T09:24:30;7.70;99.90
19220;DHT22;9744;49.364;7.484;2022-09-27T09:27:06;7.70;99.90
19220;DHT22;9744;49.364;7.484;2022-09-27T09:29:56;7.70;99.90
19220;DHT22;9744;49.364;7.484;2022-09-27T09:32:36;7.90;99.90
19220;DHT22;9744;49.364;7.484;2022-09-27T09:35:09;8.10;99.90
19220;DHT22;9744;49.364;7.484;2022-09-27T09:37:40;8.30;99.90
19220;DHT22;9744;49.364;7.484;2022-09-27T09:40:18;8.40;99.90
19220;DHT22;9744;49.364;7.484;2022-09-27T09:42:51;8.50;99.90
19220;DHT22;9744;49.364;7.484;2022-09-27T09:45:25;8.60;99.90
19220;DHT22;9744;49.364;7.484;2022-09-27T09:47:58;8.60;99.90
19220;DHT22;9744;49.364;7.484;2022-09-27T09:50:32;8.70;99.90
19220;DHT22;9744;49.364;7.484;2022-09-27T09:53:13;8.70;99.90
19220;DHT22;9744;49.364;7.484;2022-09-27T09:55:47;8.80;99.90
19220;DHT22;9744;49.364;7.484;2022-09-27T09:58:21;8.80;99.90
19220;DHT22;9744;49.364;7.484;2022-09-27T10:00:58;8.70;99.90
19220;DHT22;9744;49.364;7.484;2022-09-27T10:03:27;8.70;99.90
19220;DHT22;9744;49.364;7.484;2022-09-27T10:05:54;8.70;99.90
19220;DHT22;9744;49.364;7.484;2022-09-27T10:08:22;8.70;99.90
19220;DHT22;9744;49.364;7.484;2022-09-27T10:11:23;8.60;99.90
19220;DHT22;9744;49.364;7.484;2022-09-27T10:14:10;8.50;99.90
19220;DHT22;9744;49.364;7.484;2022-09-27T10:16:39;8.50;99.90
19220;DHT22;9744;49.364;7.484;2022-09-27T10:19:11;8.50;99.90
19220;DHT22;9744;49.364;7.484;2022-09-27T10:21:41;8.20;99.90
19220;DHT22;9744;49.364;7.484;2022-09-27T10:24:13;8.10;99.90
19220;DHT22;9744;49.364;7.484;2022-09-27T10:27:11;8.00;99.90
19220;DHT22;9744;49.364;7.484;2022-09-27T10:29:40;8.00;99.90
19220;DHT22;9744;49.364;7.484;2022-09-27T10:32:20;8.20;99.90
19220;DHT22;9744;49.364;7.484;2022-09-27T10:34:54;8.40;99.90
19220;DHT22;9744;49.364;7.484;2022-09-27T10:37:22;8.50;99.90
19220;DHT22;9744;49.364;7.484;2022-09-27T10:39:57;8.50;99.90
19220;DHT22;9744;49.364;7.484;2022-09-27T10:42:34;8.50;99.90
19220;DHT22;9744;49.364;7.484;2022-09-27T10:45:24;8.60;99.90
19220;DHT22;9744;49.364;7.484;2022-09-27T10:47:58;8.80;99.90
19220;DHT22;9744;49.364;7.484;2022-09-27T10:50:36;8.80;99.90
19220;DHT22;9744;49.364;7.484;2022-09-27T10:53:35;8.90;99.90
19220;DHT22;9744;49.364;7.484;2022-09-27T10:56:20;8.90;99.90
19220;DHT22;9744;49.364;7.484;2022-09-27T10:58:51;8.90;99.90
19220;DHT22;9744;49.364;7.484;2022-09-27T11:01:19;8.90;99.90
19220;DHT22;9744;49.364;7.484;2022-09-27T11:04:27;9.10;99.90
19220;DHT22;9744;49.364;7.484;2022-09-27T11:07:06;9.30;99.90
19220;DHT22;9744;49.364;7.484;2022-09-27T11:09:45;9.30;99.90
19220;DHT22;9744;49.364;7.484;2022-09-27T11:12:14;9.40;99.90
19220;DHT22;9744;49.364;7.484;2022-09-27T11:14:56;9.60;99.90
19220;DHT22;9744;49.364;7.484;2022-09-27T11:17:33;10.00;99.90
19220;DHT22;9744;49.364;7.484;2022-09-27T11:20:14;10.30;99.90
19220;DHT22;9744;49.364;7.484;2022-09-27T11:23:03;10.20;99.90
19220;DHT22;9744;49.364;7.484;2022-09-27T11:25:40;10.20;99.90
19220;DHT22;9744;49.364;7.484;2022-09-27T11:28:21;10.40;99.90
19220;DHT22;9744;49.364;7.484;2022-09-27T11:31:00;10.50;99.90
19220;DHT22;9744;49.364;7.484;2022-09-27T11:36:40;11.10;99.90
19220;DHT22;9744;49.364;7.484;2022-09-27T11:39:16;11.10;99.90
19220;DHT22;9744;49.364;7.484;2022-09-27T11:41:59;11.20;99.90
19220;DHT22;9744;49.364;7.484;2022-09-27T11:44:45;11.40;99.90
19220;DHT22;9744;49.364;7.484;2022-09-27T11:47:31;11.50;99.90
19220;DHT22;9744;49.364;7.484;2022-09-27T11:50:35;11.40;99.90
19220;DHT22;9744;49.364;7.484;2022-09-27T11:53:18;11.20;99.90
19220;DHT22;9744;49.364;7.484;2022-09-27T11:55:59;11.10;99.90
19220;DHT22;9744;49.364;7.484;2022-09-27T11:58:38;11.20;99.90
19220;DHT22;9744;49.364;7.484;2022-09-27T12:01:18;11.30;99.90
19220;DHT22;9744;49.364;7.484;2022-09-27T12:06:56;11.00;99.90
19220;DHT22;9744;49.364;7.484;2022-09-27T12:09:29;10.80;99.90
19220;DHT22;9744;49.364;7.484;2022-09-27T12:12:02;10.80;99.90
19220;DHT22;9744;49.364;7.484;2022-09-27T12:14:34;10.80;99.90
19220;DHT22;9744;49.364;7.484;2022-09-27T12:17:04;11.20;99.90
19220;DHT22;9744;49.364;7.484;2022-09-27T12:19:34;11.30;99.90
19220;DHT22;9744;49.364;7.484;2022-09-27T12:22:11;11.30;99.90
19220;DHT22;9744;49.364;7.484;2022-09-27T12:24:44;11.10;99.90
19220;DHT22;9744;49.364;7.484;2022-09-27T12:27:36;10.90;99.90
19220;DHT22;9744;49.364;7.484;2022-09-27T12:30:11;10.50;99.90
19220;DHT22;9744;49.364;7.484;2022-09-27T12:32:50;10.30;99.90
19220;DHT22;9744;49.364;7.484;2022-09-27T12:35:23;10.00;99.90
19220;DHT22;9744;49.364;7.484;2022-09-27T12:37:58;9.90;99.90
19220;DHT22;9744;49.364;7.484;2022-09-27T12:40:28;9.70;99.90
19220;DHT22;9744;49.364;7.484;2022-09-27T12:43:03;9.70;99.90
19220;DHT22;9744;49.364;7.484;2022-09-27T12:45:52;9.80;99.90
19220;DHT22;9744;49.364;7.484;2022-09-27T12:48:25;10.00;99.90
19220;DHT22;9744;49.364;7.484;2022-09-27T12:51:03;10.10;99.90
19220;DHT22;9744;49.364;7.484;2022-09-27T12:53:41;10.30;99.90
19220;DHT22;9744;49.364;7.484;2022-09-27T12:56:34;10.50;99.90
19220;DHT22;9744;49.364;7.484;2022-09-27T12:59:22;10.90;99.90
19220;DHT22;9744;49.364;7.484;2022-09-27T13:02:18;11.10;99.90
19220;DHT22;9744;49.364;7.484;2022-09-27T13:05:17;11.40;99.90
19220;DHT22;9744;49.364;7.484;2022-09-27T13:07:54;11.30;99.90
19220;DHT22;9744;49.364;7.484;2022-09-27T13:10:38;11.40;99.90
19220;DHT22;9744;49.364;7.484;2022-09-27T13:13:21;11.70;99.90
19220;DHT22;9744;49.364;7.484;2022-09-27T13:15:55;11.80;99.90
19220;DHT22;9744;49.364;7.484;2022-09-27T13:18:31;11.90;99.90
19220;DHT22;9744;49.364;7.484;2022-09-27T13:21:55;12.00;99.90
19220;DHT22;9744;49.364;7.484;2022-09-27T13:24:46;11.80;99.90
19220;DHT22;9744;49.364;7.484;2022-09-27T13:27:46;11.50;99.90
19220;DHT22;9744;49.364;7.484;2022-09-27T13:30:44;11.10;99.90
19220;DHT22;9744;49.364;7.484;2022-09-27T13:33:43;10.90;99.90
19220;DHT22;9744;49.364;7.484;2022-09-27T13:36:19;10.80;99.90
19220;DHT22;9744;49.364;7.484;2022-09-27T13:38:54;10.80;99.90
19220;DHT22;9744;49.364;7.484;2022-09-27T13:41:30;10.70;99.90
19220;DHT22;9744;49.364;7.484;2022-09-27T13:44:06;10.70;99.90
19220;DHT22;9744;49.364;7.484;2022-09-27T13:46:48;10.70;99.90
19220;DHT22;9744;49.364;7.484;2022-09-27T13:49:20;10.50;99.90
19220;DHT22;9744;49.364;7.484;2022-09-27T13:52:26;10.30;99.90
19220;DHT22;9744;49.364;7.484;2022-09-27T13:55:37;10.30;99.90
19220;DHT22;9744;49.364;7.484;2022-09-27T13:58:14;10.00;99.90
19220;DHT22;9744;49.364;7.484;2022-09-27T14:00:47;9.90;99.90
19220;DHT22;9744;49.364;7.484;2022-09-27T14:03:52;9.60;99.90
19220;DHT22;9744;49.364;7.484;2022-09-27T14:06:25;9.50;99.90
19220;DHT22;9744;49.364;7.484;2022-09-27T14:08:56;9.70;99.90
19220;DHT22;9744;49.364;7.484;2022-09-27T14:11:27;10.00;99.90
19220;DHT22;9744;49.364;7.484;2022-09-27T14:13:56;10.10;99.90
19220;DHT22;9744;49.364;7.484;2022-09-27T14:16:32;10.10;99.90
19220;DHT22;9744;49.364;7.484;2022-09-27T14:19:01;9.50;99.90
19220;DHT22;9744;49.364;7.484;2022-09-27T14:21:39;9.20;99.90
19220;DHT22;9744;49.364;7.484;2022-09-27T14:24:25;8.90;99.90
19220;DHT22;9744;49.364;7.484;2022-09-27T14:27:11;8.80;99.90
19220;DHT22;9744;49.364;7.484;2022-09-27T14:29:41;8.70;99.90
19220;DHT22;9744;49.364;7.484;2022-09-27T14:32:15;8.60;99.90
19220;DHT22;9744;49.364;7.484;2022-09-27T14:35:10;8.40;99.90
19220;DHT22;9744;49.364;7.484;2022-09-27T14:37:53;8.30;99.90
19220;DHT22;9744;49.364;7.484;2022-09-27T14:40:21;8.20;99.90
19220;DHT22;9744;49.364;7.484;2022-09-27T14:42:53;8.10;99.90
19220;DHT22;9744;49.364;7.484;2022-09-27T14:45:25;8.20;99.90
19220;DHT22;9744;49.364;7.484;2022-09-27T14:47:54;8.20;99.90
19220;DHT22;9744;49.364;7.484;2022-09-27T14:50:24;8.30;99.90
19220;DHT22;9744;49.364;7.484;2022-09-27T14:52:53;8.30;99.90
19220;DHT22;9744;49.364;7.484;2022-09-27T14:55:23;8.50;99.90
19220;DHT22;9744;49.364;7.484;2022-09-27T14:57:54;8.70;99.90
19220;DHT22;9744;49.364;7.484;2022-09-27T15:00:24;8.80;99.90
19220;DHT22;9744;49.364;7.484;2022-09-27T15:02:55;9.00;99.90
19220;DHT22;9744;49.364;7.484;2022-09-27T15:05:25;9.00;99.90
19220;DHT22;9744;49.364;7.484;2022-09-27T15:07:54;9.20;99.90
19220;DHT22;9744;49.364;7.484;2022-09-27T15:10:25;9.40;99.90
19220;DHT22;9744;49.364;7.484;2022-09-27T15:12:56;9.60;99.90
19220;DHT22;9744;49.364;7.484;2022-09-27T15:15:28;9.80;99.90
19220;DHT22;9744;49.364;7.484;2022-09-27T15:17:58;9.90;99.90
19220;DHT22;9744;49.364;7.484;2022-09-27T15:20:27;10.00;99.90
19220;DHT22;9744;49.364;7.484;2022-09-27T15:22:57;9.80;99.90
19220;DHT22;9744;49.364;7.484;2022-09-27T15:25:27;9.80;99.90
19220;DHT22;9744;49.364;7.484;2022-09-27T15:28:01;9.50;99.90
19220;DHT22;9744;49.364;7.484;2022-09-27T15:30:34;9.30;99.90
19220;DHT22;9744;49.364;7.484;2022-09-27T15:33:19;9.30;99.90
19220;DHT22;9744;49.364;7.484;2022-09-27T15:35:48;9.50;99.90
19220;DHT22;9744;49.364;7.484;2022-09-27T15:38:25;9.40;99.90
19220;DHT22;9744;49.364;7.484;2022-09-27T15:41:07;9.40;99.90
19220;DHT22;9744;49.364;7.484;2022-09-27T15:43:38;9.40;99.90
19220;DHT22;9744;49.364;7.484;2022-09-27T15:49:30;9.20;99.90
19220;DHT22;9744;49.364;7.484;2022-09-27T15:52:00;9.00;99.90
19220;DHT22;9744;49.364;7.484;2022-09-27T15:54:29;9.00;99.90
19220;DHT22;9744;49.364;7.484;2022-09-27T15:57:01;9.10;99.90
19220;DHT22;9744;49.364;7.484;2022-09-27T15:59:31;9.30;99.90
19220;DHT22;9744;49.364;7.484;2022-09-27T16:02:00;9.50;99.90
19220;DHT22;9744;49.364;7.484;2022-09-27T16:04:29;9.70;99.90
19220;DHT22;9744;49.364;7.484;2022-09-27T16:06:59;9.90;99.90
19220;DHT22;9744;49.364;7.484;2022-09-27T16:09:27;9.80;99.90
19220;DHT22;9744;49.364;7.484;2022-09-27T16:11:54;9.90;99.90
19220;DHT22;9744;49.364;7.484;2022-09-27T16:14:21;10.00;99.90
19220;DHT22;9744;49.364;7.484;2022-09-27T16:16:50;10.00;99.90
19220;DHT22;9744;49.364;7.484;2022-09-27T16:19:18;10.00;99.90
19220;DHT22;9744;49.364;7.484;2022-09-27T16:21:48;10.00;99.90
19220;DHT22;9744;49.364;7.484;2022-09-27T16:24:15;10.10;99.90
19220;DHT22;9744;49.364;7.484;2022-09-27T16:26:43;10.00;99.90
19220;DHT22;9744;49.364;7.484;2022-09-27T16:29:12;10.00;99.90
19220;DHT22;9744;49.364;7.484;2022-09-27T16:31:39;9.90;99.90
19220;DHT22;9744;49.364;7.484;2022-09-27T16:34:08;9.80;99.90
19220;DHT22;9744;49.364;7.484;2022-09-27T16:36:35;9.60;99.90
19220;DHT22;9744;49.364;7.484;2022-09-27T16:39:05;9.50;99.90
19220;DHT22;9744;49.364;7.484;2022-09-27T16:41:33;9.40;99.90
19220;DHT22;9744;49.364;7.484;2022-09-27T16:44:05;9.30;99.90
19220;DHT22;9744;49.364;7.484;2022-09-27T16:46:39;9.30;99.90
19220;DHT22;9744;49.364;7.484;2022-09-27T16:49:06;9.30;99.90
19220;DHT22;9744;49.364;7.484;2022-09-27T16:51:54;9.20;99.90
19220;DHT22;9744;49.364;7.484;2022-09-27T16:54:28;9.00;99.90
19220;DHT22;9744;49.364;7.484;2022-09-27T16:56:55;8.90;99.90
19220;DHT22;9744;49.364;7.484;2022-09-27T16:59:23;8.80;99.90
19220;DHT22;9744;49.364;7.484;2022-09-27T17:01:50;8.70;99.90
19220;DHT22;9744;49.364;7.484;2022-09-27T17:04:19;8.60;99.90
19220;DHT22;9744;49.364;7.484;2022-09-27T17:06:46;8.60;99.90
19220;DHT22;9744;49.364;7.484;2022-09-27T17:09:13;8.50;99.90
19220;DHT22;9744;49.364;7.484;2022-09-27T17:11:42;8.40;99.90
19220;DHT22;9744;49.364;7.484;2022-09-27T17:14:10;8.30;99.90
19220;DHT22;9744;49.364;7.484;2022-09-27T17:16:38;8.30;99.90
19220;DHT22;9744;49.364;7.484;2022-09-27T17:19:07;8.40;99.90
19220;DHT22;9744;49.364;7.484;2022-09-27T17:21:35;8.30;99.90
19220;DHT22;9744;49.364;7.484;2022-09-27T17:24:02;8.30;99.90
19220;DHT22;9744;49.364;7.484;2022-09-27T17:26:30;8.40;99.90